sensor_id;sensor_type;location;lat;lon;timestamp;pressure;altitude;pressure_sealevel;temperature;humidity
52983;BME280;48698;45.736;13.926;2023-06-10T00:04:29;97385.69;;;16.32;100.00
52983;BME280;48698;45.736;13.926;2023-06-10T00:09:32;97307.00;;;16.11;100.00
52983;BME280;48698;45.736;13.926;2023-06-10T00:14:37;97371.59;;;16.85;100.00
52983;BME280;48698;45.736;13.926;2023-06-10T00:19:40;97169.81;;;15.28;100.00
52983;BME280;48698;45.736;13.926;2023-06-10T00:24:44;97345.63;;;16.30;100.00
52983;BME280;48698;45.736;13.926;2023-06-10T00:29:47;97260.66;;;15.64;100.00
52983;BME280;48698;45.736;13.926;2023-06-10T00:34:57;97238.41;;;15.86;100.00
52983;BME280;48698;45.736;13.926;2023-06-10T00:40:00;97352.34;;;16.58;100.00
52983;BME280;48698;45.736;13.926;2023-06-10T00:45:03;97303.88;;;15.82;100.00
52983;BME280;48698;45.736;13.926;2023-06-10T00:50:07;97341.69;;;15.42;100.00
52983;BME280;48698;45.736;13.926;2023-06-10T00:55:10;97178.19;;;14.17;100.00
52983;BME280;48698;45.736;13.926;2023-06-10T01:00:13;97248.38;;;15.27;100.00
52983;BME280;48698;45.736;13.926;2023-06-10T01:05:16;97306.13;;;15.29;100.00
52983;BME280;48698;45.736;13.926;2023-06-10T01:10:57;97346.72;;;15.47;100.00
52983;BME280;48698;45.736;13.926;2023-06-10T01:15:51;97313.44;;;15.27;100.00
52983;BME280;48698;45.736;13.926;2023-06-10T01:20:54;97087.69;;;13.89;100.00
52983;BME280;48698;45.736;13.926;2023-06-10T01:26:02;97251.56;;;15.08;100.00
52983;BME280;48698;45.736;13.926;2023-06-10T01:36:29;97224.56;;;14.76;100.00
52983;BME280;48698;45.736;13.926;2023-06-10T01:41:34;97284.00;;;15.27;100.00
52983;BME280;48698;45.736;13.926;2023-06-10T01:46:38;97186.19;;;14.54;100.00
52983;BME280;48698;45.736;13.926;2023-06-10T01:51:41;97219.25;;;14.40;100.00
52983;BME280;48698;45.736;13.926;2023-06-10T01:56:44;97237.75;;;14.43;100.00
52983;BME280;48698;45.736;13.926;2023-06-10T02:01:51;97168.31;;;14.30;100.00
52983;BME280;48698;45.736;13.926;2023-06-10T02:06:54;97320.06;;;15.45;100.00
52983;BME280;48698;45.736;13.926;2023-06-10T02:11:59;97285.53;;;14.95;100.00
52983;BME280;48698;45.736;13.926;2023-06-10T02:17:02;97134.00;;;13.64;100.00
52983;BME280;48698;45.736;13.926;2023-06-10T02:22:05;97321.06;;;15.21;100.00
52983;BME280;48698;45.736;13.926;2023-06-10T02:27:07;97328.94;;;15.22;100.00
52983;BME280;48698;45.736;13.926;2023-06-10T02:32:10;97322.88;;;14.96;100.00
52983;BME280;48698;45.736;13.926;2023-06-10T02:37:14;97224.50;;;14.29;100.00
52983;BME280;48698;45.736;13.926;2023-06-10T02:42:17;97337.72;;;15.00;100.00
52983;BME280;48698;45.736;13.926;2023-06-10T02:47:20;97269.91;;;14.78;100.00
52983;BME280;48698;45.736;13.926;2023-06-10T02:52:23;97286.19;;;14.62;100.00
52983;BME280;48698;45.736;13.926;2023-06-10T02:57:26;97071.13;;;13.60;100.00
52983;BME280;48698;45.736;13.926;2023-06-10T03:02:38;97061.50;;;13.70;100.00
52983;BME280;48698;45.736;13.926;2023-06-10T03:07:42;97342.25;;;14.87;100.00
52983;BME280;48698;45.736;13.926;2023-06-10T03:12:44;97350.41;;;15.10;100.00
52983;BME280;48698;45.736;13.926;2023-06-10T03:17:48;97089.31;;;13.79;100.00
52983;BME280;48698;45.736;13.926;2023-06-10T03:22:51;97213.81;;;14.41;100.00
52983;BME280;48698;45.736;13.926;2023-06-10T03:28:00;97215.91;;;14.49;100.00
52983;BME280;48698;45.736;13.926;2023-06-10T03:33:03;97283.72;;;14.95;100.00
52983;BME280;48698;45.736;13.926;2023-06-10T03:38:06;97208.13;;;14.46;100.00
52983;BME280;48698;45.736;13.926;2023-06-10T03:43:08;97161.97;;;14.08;100.00
52983;BME280;48698;45.736;13.926;2023-06-10T03:48:11;97125.84;;;13.78;100.00
52983;BME280;48698;45.736;13.926;2023-06-10T03:53:14;97252.06;;;14.42;100.00
52983;BME280;48698;45.736;13.926;2023-06-10T03:58:17;97148.13;;;13.90;100.00
52983;BME280;48698;45.736;13.926;2023-06-10T04:03:20;97337.13;;;15.32;100.00
52983;BME280;48698;45.736;13.926;2023-06-10T04:08:23;97323.50;;;15.24;100.00
52983;BME280;48698;45.736;13.926;2023-06-10T04:13:26;97182.75;;;14.15;100.00
52983;BME280;48698;45.736;13.926;2023-06-10T04:18:30;97045.00;;;13.65;100.00
52983;BME280;48698;45.736;13.926;2023-06-10T04:23:32;97319.19;;;15.69;100.00
52983;BME280;48698;45.736;13.926;2023-06-10T04:28:35;97115.69;;;14.67;100.00
52983;BME280;48698;45.736;13.926;2023-06-10T04:33:38;97229.16;;;14.98;100.00
52983;BME280;48698;45.736;13.926;2023-06-10T04:38:42;97062.56;;;14.04;100.00
52983;BME280;48698;45.736;13.926;2023-06-10T04:43:45;97325.69;;;15.88;100.00
52983;BME280;48698;45.736;13.926;2023-06-10T04:48:48;97203.16;;;15.46;100.00
52983;BME280;48698;45.736;13.926;2023-06-10T04:53:51;97281.41;;;15.95;100.00
52983;BME280;48698;45.736;13.926;2023-06-10T04:58:54;97231.34;;;15.85;100.00
52983;BME280;48698;45.736;13.926;2023-06-10T05:03:57;97313.84;;;16.59;100.00
52983;BME280;48698;45.736;13.926;2023-06-10T05:09:01;97295.31;;;16.56;100.00
52983;BME280;48698;45.736;13.926;2023-06-10T05:14:03;97294.19;;;16.47;100.00
52983;BME280;48698;45.736;13.926;2023-06-10T05:19:07;97044.31;;;15.25;100.00
52983;BME280;48698;45.736;13.926;2023-06-10T05:24:09;97151.72;;;16.20;100.00
52983;BME280;48698;45.736;13.926;2023-06-10T05:29:12;97224.34;;;16.71;100.00
52983;BME280;48698;45.736;13.926;2023-06-10T05:34:15;97223.47;;;17.14;100.00
52983;BME280;48698;45.736;13.926;2023-06-10T05:39:27;97179.19;;;17.19;100.00
52983;BME280;48698;45.736;13.926;2023-06-10T05:44:30;97218.03;;;17.56;100.00
52983;BME280;48698;45.736;13.926;2023-06-10T05:49:33;97121.19;;;17.28;100.00
52983;BME280;48698;45.736;13.926;2023-06-10T05:54:36;97210.81;;;18.08;100.00
52983;BME280;48698;45.736;13.926;2023-06-10T05:59:38;97235.94;;;18.58;100.00
52983;BME280;48698;45.736;13.926;2023-06-10T06:04:41;97304.44;;;19.23;100.00
52983;BME280;48698;45.736;13.926;2023-06-10T06:09:44;97283.53;;;19.55;100.00
52983;BME280;48698;45.736;13.926;2023-06-10T06:14:46;97248.50;;;19.74;100.00
52983;BME280;48698;45.736;13.926;2023-06-10T06:19:51;97271.16;;;19.91;100.00
52983;BME280;48698;45.736;13.926;2023-06-10T06:24:54;97270.56;;;20.06;100.00
52983;BME280;48698;45.736;13.926;2023-06-10T06:29:57;97134.78;;;19.71;100.00
52983;BME280;48698;45.736;13.926;2023-06-10T06:35:10;97274.06;;;21.08;100.00
52983;BME280;48698;45.736;13.926;2023-06-10T06:40:13;97044.97;;;20.07;100.00
52983;BME280;48698;45.736;13.926;2023-06-10T06:45:16;97274.00;;;21.62;100.00
52983;BME280;48698;45.736;13.926;2023-06-10T06:50:19;97271.06;;;21.74;100.00
52983;BME280;48698;45.736;13.926;2023-06-10T06:55:22;97261.78;;;21.76;100.00
52983;BME280;48698;45.736;13.926;2023-06-10T07:00:24;97171.78;;;21.58;100.00
52983;BME280;48698;45.736;13.926;2023-06-10T07:05:27;97257.53;;;22.43;100.00
52983;BME280;48698;45.736;13.926;2023-06-10T07:10:30;97182.69;;;22.26;100.00
52983;BME280;48698;45.736;13.926;2023-06-10T07:15:33;97237.41;;;22.45;100.00
52983;BME280;48698;45.736;13.926;2023-06-10T07:20:36;97157.66;;;21.90;100.00
52983;BME280;48698;45.736;13.926;2023-06-10T07:25:41;97065.97;;;21.45;100.00
52983;BME280;48698;45.736;13.926;2023-06-10T07:30:44;96978.06;;;21.17;100.00
52983;BME280;48698;45.736;13.926;2023-06-10T07:35:47;96981.72;;;21.41;100.00
52983;BME280;48698;45.736;13.926;2023-06-10T07:41:00;97235.56;;;22.80;100.00
52983;BME280;48698;45.736;13.926;2023-06-10T07:46:03;97147.53;;;22.26;100.00
52983;BME280;48698;45.736;13.926;2023-06-10T07:51:16;97108.03;;;22.41;100.00
52983;BME280;48698;45.736;13.926;2023-06-10T07:56:19;97160.59;;;22.72;100.00
52983;BME280;48698;45.736;13.926;2023-06-10T08:01:34;97227.44;;;24.02;100.00
52983;BME280;48698;45.736;13.926;2023-06-10T08:06:38;97124.06;;;23.73;100.00
52983;BME280;48698;45.736;13.926;2023-06-10T08:11:41;97201.84;;;23.81;100.00
52983;BME280;48698;45.736;13.926;2023-06-10T08:16:44;97170.16;;;23.81;100.00
52983;BME280;48698;45.736;13.926;2023-06-10T08:21:47;97213.88;;;24.18;100.00
52983;BME280;48698;45.736;13.926;2023-06-10T08:26:49;97188.63;;;23.86;100.00
52983;BME280;48698;45.736;13.926;2023-06-10T08:31:52;97217.38;;;24.35;100.00
52983;BME280;48698;45.736;13.926;2023-06-10T08:36:55;97211.53;;;25.55;100.00
52983;BME280;48698;45.736;13.926;2023-06-10T08:47:14;97164.28;;;26.66;100.00
52983;BME280;48698;45.736;13.926;2023-06-10T08:52:19;97211.31;;;27.40;100.00
52983;BME280;48698;45.736;13.926;2023-06-10T08:57:23;97172.19;;;27.12;100.00
52983;BME280;48698;45.736;13.926;2023-06-10T09:02:27;97214.69;;;27.85;100.00
52983;BME280;48698;45.736;13.926;2023-06-10T09:26:39;97190.50;;;26.82;100.00
52983;BME280;48698;45.736;13.926;2023-06-10T09:31:43;97193.78;;;26.48;100.00
52983;BME280;48698;45.736;13.926;2023-06-10T09:46:50;97131.19;;;26.34;100.00
52983;BME280;48698;45.736;13.926;2023-06-10T09:51:57;97180.16;;;24.91;100.00
52983;BME280;48698;45.736;13.926;2023-06-10T09:57:07;96986.00;;;23.72;100.00
52983;BME280;48698;45.736;13.926;2023-06-10T10:02:18;97132.53;;;25.86;100.00
52983;BME280;48698;45.736;13.926;2023-06-10T10:12:15;97132.78;;;26.93;100.00
52983;BME280;48698;45.736;13.926;2023-06-10T10:44:11;97154.47;;;26.51;100.00
52983;BME280;48698;45.736;13.926;2023-06-10T10:49:17;97111.91;;;25.91;100.00
52983;BME280;48698;45.736;13.926;2023-06-10T10:54:34;97144.50;;;26.29;100.00
52983;BME280;48698;45.736;13.926;2023-06-10T11:00:11;97066.38;;;25.18;100.00
52983;BME280;48698;45.736;13.926;2023-06-10T11:05:16;97135.84;;;24.90;100.00
52983;BME280;48698;45.736;13.926;2023-06-10T11:10:28;97050.72;;;24.22;100.00
52983;BME280;48698;45.736;13.926;2023-06-10T11:15:32;97128.66;;;24.66;100.00
52983;BME280;48698;45.736;13.926;2023-06-10T11:20:58;97107.69;;;24.22;100.00
52983;BME280;48698;45.736;13.926;2023-06-10T11:31:32;96868.41;;;20.64;100.00
52983;BME280;48698;45.736;13.926;2023-06-10T11:36:41;97149.47;;;21.56;100.00
52983;BME280;48698;45.736;13.926;2023-06-10T11:41:45;96973.13;;;19.06;100.00
52983;BME280;48698;45.736;13.926;2023-06-10T11:46:49;97135.31;;;19.08;100.00
52983;BME280;48698;45.736;13.926;2023-06-10T11:51:53;97244.81;;;19.18;100.00
52983;BME280;48698;45.736;13.926;2023-06-10T11:56:58;97291.69;;;18.56;100.00
52983;BME280;48698;45.736;13.926;2023-06-10T12:02:02;97314.78;;;18.98;100.00
52983;BME280;48698;45.736;13.926;2023-06-10T12:07:07;97339.03;;;19.27;100.00
52983;BME280;48698;45.736;13.926;2023-06-10T12:12:20;97353.34;;;19.28;100.00
52983;BME280;48698;45.736;13.926;2023-06-10T12:22:41;97405.66;;;18.85;100.00
52983;BME280;48698;45.736;13.926;2023-06-10T12:27:53;97384.09;;;18.34;100.00
52983;BME280;48698;45.736;13.926;2023-06-10T12:32:57;97327.41;;;17.00;100.00
52983;BME280;48698;45.736;13.926;2023-06-10T12:38:03;97386.94;;;16.61;100.00
52983;BME280;48698;45.736;13.926;2023-06-10T12:43:07;97375.91;;;16.20;100.00
52983;BME280;48698;45.736;13.926;2023-06-10T12:53:15;97408.00;;;15.97;100.00
52983;BME280;48698;45.736;13.926;2023-06-10T12:58:20;97411.81;;;16.06;100.00
52983;BME280;48698;45.736;13.926;2023-06-10T13:03:25;97430.81;;;16.14;100.00
52983;BME280;48698;45.736;13.926;2023-06-10T13:08:28;97414.03;;;16.23;100.00
52983;BME280;48698;45.736;13.926;2023-06-10T13:13:32;97408.59;;;16.36;100.00
52983;BME280;48698;45.736;13.926;2023-06-10T13:18:36;97413.81;;;16.26;100.00
52983;BME280;48698;45.736;13.926;2023-06-10T13:23:44;97418.00;;;16.52;100.00
52983;BME280;48698;45.736;13.926;2023-06-10T13:28:49;97383.84;;;16.54;100.00
52983;BME280;48698;45.736;13.926;2023-06-10T13:33:53;97377.47;;;16.57;100.00
52983;BME280;48698;45.736;13.926;2023-06-10T13:38:56;97318.06;;;16.50;100.00
52983;BME280;48698;45.736;13.926;2023-06-10T13:44:00;97428.50;;;16.78;100.00
52983;BME280;48698;45.736;13.926;2023-06-10T13:49:03;97351.13;;;16.62;100.00
52983;BME280;48698;45.736;13.926;2023-06-10T13:54:06;97423.22;;;17.21;100.00
52983;BME280;48698;45.736;13.926;2023-06-10T13:59:10;97386.75;;;17.29;100.00
52983;BME280;48698;45.736;13.926;2023-06-10T14:04:13;97397.09;;;17.56;100.00
52983;BME280;48698;45.736;13.926;2023-06-10T14:09:17;97413.13;;;17.78;100.00
52983;BME280;48698;45.736;13.926;2023-06-10T14:14:20;97384.72;;;17.53;100.00
52983;BME280;48698;45.736;13.926;2023-06-10T14:19:25;97366.78;;;17.65;100.00
52983;BME280;48698;45.736;13.926;2023-06-10T14:24:39;97338.44;;;17.72;100.00
52983;BME280;48698;45.736;13.926;2023-06-10T14:29:49;97345.06;;;17.57;100.00
52983;BME280;48698;45.736;13.926;2023-06-10T14:34:52;97263.19;;;16.88;100.00
52983;BME280;48698;45.736;13.926;2023-06-10T14:39:56;97326.75;;;17.62;100.00
52983;BME280;48698;45.736;13.926;2023-06-10T14:44:59;97316.69;;;17.75;100.00
52983;BME280;48698;45.736;13.926;2023-06-10T14:50:04;97354.69;;;18.12;100.00
52983;BME280;48698;45.736;13.926;2023-06-10T14:55:14;97288.31;;;17.62;100.00
52983;BME280;48698;45.736;13.926;2023-06-10T15:00:19;97331.03;;;18.06;100.00
52983;BME280;48698;45.736;13.926;2023-06-10T15:05:25;97299.66;;;17.86;100.00
52983;BME280;48698;45.736;13.926;2023-06-10T15:10:29;97346.16;;;18.28;100.00
52983;BME280;48698;45.736;13.926;2023-06-10T15:15:33;97357.84;;;18.47;100.00
52983;BME280;48698;45.736;13.926;2023-06-10T15:28:44;97329.38;;;19.05;100.00
52983;BME280;48698;45.736;13.926;2023-06-10T15:33:47;97289.38;;;18.82;100.00
52983;BME280;48698;45.736;13.926;2023-06-10T15:38:51;97305.16;;;19.05;100.00
52983;BME280;48698;45.736;13.926;2023-06-10T15:43:58;97208.66;;;18.72;100.00
52983;BME280;48698;45.736;13.926;2023-06-10T15:49:04;97202.72;;;18.78;100.00
52983;BME280;48698;45.736;13.926;2023-06-10T15:54:08;97247.03;;;18.84;100.00
52983;BME280;48698;45.736;13.926;2023-06-10T15:59:22;97280.50;;;19.10;100.00
52983;BME280;48698;45.736;13.926;2023-06-10T16:04:29;97260.00;;;19.28;100.00
52983;BME280;48698;45.736;13.926;2023-06-10T16:09:32;97310.78;;;19.52;100.00
52983;BME280;48698;45.736;13.926;2023-06-10T16:14:46;97262.41;;;19.50;100.00
52983;BME280;48698;45.736;13.926;2023-06-10T16:19:50;97203.00;;;19.23;100.00
52983;BME280;48698;45.736;13.926;2023-06-10T16:24:53;97134.31;;;18.90;100.00
52983;BME280;48698;45.736;13.926;2023-06-10T16:29:57;97275.97;;;19.39;100.00
52983;BME280;48698;45.736;13.926;2023-06-10T16:35:01;97239.13;;;18.82;100.00
52983;BME280;48698;45.736;13.926;2023-06-10T16:40:04;97220.97;;;18.65;100.00
52983;BME280;48698;45.736;13.926;2023-06-10T16:45:08;97146.41;;;17.87;100.00
52983;BME280;48698;45.736;13.926;2023-06-10T16:50:19;97235.28;;;18.35;100.00
52983;BME280;48698;45.736;13.926;2023-06-10T16:55:22;97286.88;;;18.59;100.00
52983;BME280;48698;45.736;13.926;2023-06-10T17:00:26;97198.97;;;18.20;100.00
52983;BME280;48698;45.736;13.926;2023-06-10T17:05:29;97224.22;;;17.98;100.00
52983;BME280;48698;45.736;13.926;2023-06-10T17:10:33;97344.06;;;18.52;100.00
52983;BME280;48698;45.736;13.926;2023-06-10T17:15:43;97304.94;;;18.48;100.00
52983;BME280;48698;45.736;13.926;2023-06-10T17:20:47;97319.22;;;18.69;100.00
52983;BME280;48698;45.736;13.926;2023-06-10T17:26:01;97312.50;;;18.54;100.00
52983;BME280;48698;45.736;13.926;2023-06-10T17:31:05;97293.72;;;18.43;100.00
52983;BME280;48698;45.736;13.926;2023-06-10T17:36:09;97294.00;;;18.40;100.00
52983;BME280;48698;45.736;13.926;2023-06-10T17:41:13;97317.53;;;18.47;100.00
52983;BME280;48698;45.736;13.926;2023-06-10T17:46:19;97327.75;;;18.53;100.00
52983;BME280;48698;45.736;13.926;2023-06-10T17:51:23;97281.00;;;18.45;100.00
52983;BME280;48698;45.736;13.926;2023-06-10T17:56:26;97372.28;;;18.67;100.00
52983;BME280;48698;45.736;13.926;2023-06-10T18:01:30;97322.72;;;18.09;100.00
52983;BME280;48698;45.736;13.926;2023-06-10T18:06:34;97350.34;;;18.00;100.00
52983;BME280;48698;45.736;13.926;2023-06-10T18:11:37;97338.16;;;17.75;100.00
52983;BME280;48698;45.736;13.926;2023-06-10T18:16:41;97376.97;;;17.82;100.00
52983;BME280;48698;45.736;13.926;2023-06-10T18:21:46;97391.72;;;18.08;100.00
52983;BME280;48698;45.736;13.926;2023-06-10T18:26:59;97259.44;;;17.22;100.00
52983;BME280;48698;45.736;13.926;2023-06-10T18:32:03;97386.22;;;17.89;100.00
52983;BME280;48698;45.736;13.926;2023-06-10T18:37:08;97343.94;;;17.28;100.00
52983;BME280;48698;45.736;13.926;2023-06-10T18:42:22;97355.69;;;17.04;100.00
52983;BME280;48698;45.736;13.926;2023-06-10T18:47:35;97240.97;;;16.32;100.00
52983;BME280;48698;45.736;13.926;2023-06-10T18:52:58;97358.13;;;17.08;100.00
52983;BME280;48698;45.736;13.926;2023-06-10T18:58:03;97401.06;;;17.08;100.00
52983;BME280;48698;45.736;13.926;2023-06-10T19:03:07;97299.69;;;16.46;100.00
52983;BME280;48698;45.736;13.926;2023-06-10T19:08:11;97344.63;;;16.42;100.00
52983;BME280;48698;45.736;13.926;2023-06-10T19:13:14;97305.28;;;16.10;100.00
52983;BME280;48698;45.736;13.926;2023-06-10T19:18:18;97334.25;;;16.16;100.00
52983;BME280;48698;45.736;13.926;2023-06-10T19:23:22;97288.22;;;15.99;100.00
52983;BME280;48698;45.736;13.926;2023-06-10T19:28:26;97337.66;;;16.18;100.00
52983;BME280;48698;45.736;13.926;2023-06-10T19:33:39;97356.66;;;16.15;100.00
52983;BME280;48698;45.736;13.926;2023-06-10T19:38:43;97390.38;;;16.06;100.00
52983;BME280;48698;45.736;13.926;2023-06-10T19:43:49;97400.03;;;16.20;100.00
52983;BME280;48698;45.736;13.926;2023-06-10T19:48:52;97262.28;;;15.43;100.00
52983;BME280;48698;45.736;13.926;2023-06-10T19:53:56;97404.41;;;16.21;100.00
52983;BME280;48698;45.736;13.926;2023-06-10T19:59:00;97378.59;;;15.74;100.00
52983;BME280;48698;45.736;13.926;2023-06-10T20:04:03;97431.66;;;16.15;100.00
52983;BME280;48698;45.736;13.926;2023-06-10T20:09:07;97403.19;;;15.79;100.00
52983;BME280;48698;45.736;13.926;2023-06-10T20:14:11;97303.75;;;15.14;100.00
52983;BME280;48698;45.736;13.926;2023-06-10T20:19:15;97289.41;;;15.15;100.00
52983;BME280;48698;45.736;13.926;2023-06-10T20:24:18;97450.75;;;16.45;100.00
52983;BME280;48698;45.736;13.926;2023-06-10T20:29:22;97426.63;;;16.34;100.00
52983;BME280;48698;45.736;13.926;2023-06-10T20:34:25;97410.38;;;16.24;100.00
52983;BME280;48698;45.736;13.926;2023-06-10T20:39:29;97358.34;;;16.04;100.00
52983;BME280;48698;45.736;13.926;2023-06-10T20:44:43;97394.28;;;16.24;100.00
52983;BME280;48698;45.736;13.926;2023-06-10T20:49:56;97216.06;;;15.41;100.00
52983;BME280;48698;45.736;13.926;2023-06-10T20:55:00;97360.78;;;16.08;100.00
52983;BME280;48698;45.736;13.926;2023-06-10T21:00:04;97432.50;;;16.61;100.00
52983;BME280;48698;45.736;13.926;2023-06-10T21:05:07;97408.16;;;16.64;100.00
52983;BME280;48698;45.736;13.926;2023-06-10T21:10:13;97406.94;;;16.57;100.00
52983;BME280;48698;45.736;13.926;2023-06-10T21:15:29;97332.94;;;16.10;100.00
52983;BME280;48698;45.736;13.926;2023-06-10T21:20:32;97364.00;;;16.24;100.00
52983;BME280;48698;45.736;13.926;2023-06-10T21:25:36;97432.78;;;16.69;100.00
52983;BME280;48698;45.736;13.926;2023-06-10T21:30:41;97437.41;;;16.56;100.00
52983;BME280;48698;45.736;13.926;2023-06-10T21:35:45;97361.63;;;16.08;100.00
52983;BME280;48698;45.736;13.926;2023-06-10T21:40:48;97430.41;;;16.42;100.00
52983;BME280;48698;45.736;13.926;2023-06-10T21:45:52;97276.06;;;15.49;100.00
52983;BME280;48698;45.736;13.926;2023-06-10T21:50:58;97381.38;;;16.18;100.00
52983;BME280;48698;45.736;13.926;2023-06-10T21:56:12;97365.47;;;16.50;100.00
52983;BME280;48698;45.736;13.926;2023-06-10T22:01:15;97396.44;;;16.87;100.00
52983;BME280;48698;45.736;13.926;2023-06-10T22:06:24;97426.22;;;16.73;100.00
52983;BME280;48698;45.736;13.926;2023-06-10T22:11:37;97434.13;;;16.86;100.00
52983;BME280;48698;45.736;13.926;2023-06-10T22:16:51;97426.19;;;16.84;100.00
52983;BME280;48698;45.736;13.926;2023-06-10T22:21:55;97408.66;;;16.80;100.00
52983;BME280;48698;45.736;13.926;2023-06-10T22:26:59;97414.38;;;17.09;100.00
52983;BME280;48698;45.736;13.926;2023-06-10T22:32:03;97405.03;;;17.35;100.00
52983;BME280;48698;45.736;13.926;2023-06-10T22:37:06;97381.09;;;17.43;100.00
52983;BME280;48698;45.736;13.926;2023-06-10T22:42:09;97396.06;;;17.68;100.00
52983;BME280;48698;45.736;13.926;2023-06-10T22:47:13;97294.16;;;17.24;100.00
52983;BME280;48698;45.736;13.926;2023-06-10T22:52:17;97378.63;;;17.51;100.00
52983;BME280;48698;45.736;13.926;2023-06-10T22:57:21;97379.56;;;17.30;100.00
52983;BME280;48698;45.736;13.926;2023-06-10T23:02:25;97389.25;;;16.88;100.00
52983;BME280;48698;45.736;13.926;2023-06-10T23:07:38;97356.69;;;16.48;100.00
52983;BME280;48698;45.736;13.926;2023-06-10T23:12:45;97380.00;;;16.81;100.00
52983;BME280;48698;45.736;13.926;2023-06-10T23:17:48;97378.91;;;16.61;100.00
52983;BME280;48698;45.736;13.926;2023-06-10T23:22:52;97424.22;;;16.64;100.00
52983;BME280;48698;45.736;13.926;2023-06-10T23:27:56;97325.13;;;16.74;100.00
52983;BME280;48698;45.736;13.926;2023-06-10T23:33:00;97335.97;;;16.94;100.00
52983;BME280;48698;45.736;13.926;2023-06-10T23:38:03;97400.69;;;17.23;100.00
52983;BME280;48698;45.736;13.926;2023-06-10T23:43:07;97306.16;;;18.14;100.00
52983;BME280;48698;45.736;13.926;2023-06-10T23:48:10;97250.97;;;18.40;100.00
52983;BME280;48698;45.736;13.926;2023-06-10T23:53:13;97240.56;;;18.16;100.00
52983;BME280;48698;45.736;13.926;2023-06-10T23:58:17;97059.09;;;17.12;100.00
